sensor_id;sensor_type;location;lat;lon;timestamp;pressure;altitude;pressure_sealevel;temperature;humidity
62031;BME280;62035;52.094;5.112;2022-10-16T00:01:41;100982.13;;;15.22;100.00
62031;BME280;62035;52.094;5.112;2022-10-16T00:04:09;100969.88;;;15.27;100.00
62031;BME280;62035;52.094;5.112;2022-10-16T00:06:38;100986.59;;;15.38;100.00
62031;BME280;62035;52.094;5.112;2022-10-16T00:09:06;100982.63;;;15.25;100.00
62031;BME280;62035;52.094;5.112;2022-10-16T00:11:37;100993.00;;;15.28;100.00
62031;BME280;62035;52.094;5.112;2022-10-16T00:14:10;101000.06;;;15.21;100.00
62031;BME280;62035;52.094;5.112;2022-10-16T00:16:40;100994.44;;;15.16;100.00
62031;BME280;62035;52.094;5.112;2022-10-16T00:19:09;100993.41;;;15.17;100.00
62031;BME280;62035;52.094;5.112;2022-10-16T00:21:38;100997.53;;;14.97;100.00
62031;BME280;62035;52.094;5.112;2022-10-16T00:24:08;100988.59;;;15.13;100.00
62031;BME280;62035;52.094;5.112;2022-10-16T00:26:37;100987.41;;;15.15;100.00
62031;BME280;62035;52.094;5.112;2022-10-16T00:29:08;100990.34;;;15.20;100.00
62031;BME280;62035;52.094;5.112;2022-10-16T00:31:36;100980.72;;;15.11;100.00
62031;BME280;62035;52.094;5.112;2022-10-16T00:34:04;100984.38;;;15.18;100.00
62031;BME280;62035;52.094;5.112;2022-10-16T00:36:32;100986.31;;;15.24;100.00
62031;BME280;62035;52.094;5.112;2022-10-16T00:38:59;100982.28;;;15.28;100.00
62031;BME280;62035;52.094;5.112;2022-10-16T00:41:28;100990.97;;;15.30;100.00
62031;BME280;62035;52.094;5.112;2022-10-16T00:43:57;100985.38;;;15.17;100.00
62031;BME280;62035;52.094;5.112;2022-10-16T00:46:28;100988.97;;;15.32;100.00
62031;BME280;62035;52.094;5.112;2022-10-16T00:49:02;100988.59;;;15.35;100.00
62031;BME280;62035;52.094;5.112;2022-10-16T00:51:34;100983.72;;;15.39;100.00
62031;BME280;62035;52.094;5.112;2022-10-16T00:54:06;100988.03;;;15.48;100.00
62031;BME280;62035;52.094;5.112;2022-10-16T00:56:37;101007.16;;;15.45;100.00
62031;BME280;62035;52.094;5.112;2022-10-16T00:59:07;101003.03;;;15.34;100.00
62031;BME280;62035;52.094;5.112;2022-10-16T01:01:49;101013.59;;;15.36;100.00
62031;BME280;62035;52.094;5.112;2022-10-16T01:04:16;101015.56;;;15.42;100.00
62031;BME280;62035;52.094;5.112;2022-10-16T01:06:49;101016.00;;;15.54;100.00
62031;BME280;62035;52.094;5.112;2022-10-16T01:09:32;101013.00;;;15.57;100.00
62031;BME280;62035;52.094;5.112;2022-10-16T01:12:10;101014.06;;;15.40;100.00
62031;BME280;62035;52.094;5.112;2022-10-16T01:14:46;101003.00;;;15.43;100.00
62031;BME280;62035;52.094;5.112;2022-10-16T01:17:23;101008.03;;;15.38;100.00
62031;BME280;62035;52.094;5.112;2022-10-16T01:20:08;101017.41;;;15.42;100.00
62031;BME280;62035;52.094;5.112;2022-10-16T01:22:54;101013.53;;;15.44;100.00
62031;BME280;62035;52.094;5.112;2022-10-16T01:25:36;101018.09;;;15.35;100.00
62031;BME280;62035;52.094;5.112;2022-10-16T01:28:19;101017.44;;;15.33;100.00
62031;BME280;62035;52.094;5.112;2022-10-16T01:30:52;101024.88;;;15.23;100.00
62031;BME280;62035;52.094;5.112;2022-10-16T01:33:30;101022.63;;;15.35;100.00
62031;BME280;62035;52.094;5.112;2022-10-16T01:36:10;101003.03;;;15.34;100.00
62031;BME280;62035;52.094;5.112;2022-10-16T01:38:41;100977.97;;;14.88;100.00
62031;BME280;62035;52.094;5.112;2022-10-16T01:41:17;100972.19;;;14.68;100.00
62031;BME280;62035;52.094;5.112;2022-10-16T01:43:57;100984.41;;;14.71;100.00
62031;BME280;62035;52.094;5.112;2022-10-16T01:46:31;100991.03;;;14.83;100.00
62031;BME280;62035;52.094;5.112;2022-10-16T01:49:00;100990.53;;;14.88;100.00
62031;BME280;62035;52.094;5.112;2022-10-16T01:51:30;100998.91;;;14.85;100.00
62031;BME280;62035;52.094;5.112;2022-10-16T01:54:00;100997.91;;;14.86;100.00
62031;BME280;62035;52.094;5.112;2022-10-16T01:56:29;100997.56;;;14.89;100.00
62031;BME280;62035;52.094;5.112;2022-10-16T01:59:02;101003.44;;;14.84;100.00
62031;BME280;62035;52.094;5.112;2022-10-16T02:01:36;101011.75;;;14.97;100.00
62031;BME280;62035;52.094;5.112;2022-10-16T02:04:09;101012.03;;;15.11;100.00
62031;BME280;62035;52.094;5.112;2022-10-16T02:06:42;101012.53;;;15.14;100.00
62031;BME280;62035;52.094;5.112;2022-10-16T02:09:10;101011.25;;;14.94;100.00
62031;BME280;62035;52.094;5.112;2022-10-16T02:11:38;101022.50;;;14.89;100.00
62031;BME280;62035;52.094;5.112;2022-10-16T02:14:07;101014.38;;;14.75;100.00
62031;BME280;62035;52.094;5.112;2022-10-16T02:16:37;101018.56;;;14.69;100.00
62031;BME280;62035;52.094;5.112;2022-10-16T02:19:06;101003.03;;;14.48;100.00
62031;BME280;62035;52.094;5.112;2022-10-16T02:21:40;101018.94;;;14.50;100.00
62031;BME280;62035;52.094;5.112;2022-10-16T02:24:19;101027.47;;;14.53;100.00
62031;BME280;62035;52.094;5.112;2022-10-16T02:26:59;101026.13;;;14.49;100.00
62031;BME280;62035;52.094;5.112;2022-10-16T02:29:39;101026.47;;;14.54;100.00
62031;BME280;62035;52.094;5.112;2022-10-16T02:32:13;101031.97;;;14.53;100.00
62031;BME280;62035;52.094;5.112;2022-10-16T02:34:45;101026.63;;;14.61;100.00
62031;BME280;62035;52.094;5.112;2022-10-16T02:37:16;101033.63;;;14.70;100.00
62031;BME280;62035;52.094;5.112;2022-10-16T02:39:45;101030.78;;;14.72;100.00
62031;BME280;62035;52.094;5.112;2022-10-16T02:42:14;101034.63;;;14.69;100.00
62031;BME280;62035;52.094;5.112;2022-10-16T02:44:46;101034.06;;;14.90;100.00
62031;BME280;62035;52.094;5.112;2022-10-16T02:47:13;101037.59;;;14.82;100.00
62031;BME280;62035;52.094;5.112;2022-10-16T02:49:41;101035.78;;;14.75;100.00
62031;BME280;62035;52.094;5.112;2022-10-16T02:52:08;101041.44;;;14.88;100.00
62031;BME280;62035;52.094;5.112;2022-10-16T02:54:36;101036.59;;;14.83;100.00
62031;BME280;62035;52.094;5.112;2022-10-16T02:57:03;101049.28;;;14.97;100.00
62031;BME280;62035;52.094;5.112;2022-10-16T02:59:31;101039.06;;;15.01;100.00
62031;BME280;62035;52.094;5.112;2022-10-16T03:02:00;101040.16;;;14.76;100.00
62031;BME280;62035;52.094;5.112;2022-10-16T03:04:27;101041.44;;;14.80;100.00
62031;BME280;62035;52.094;5.112;2022-10-16T03:06:55;101033.25;;;14.81;100.00
62031;BME280;62035;52.094;5.112;2022-10-16T03:09:23;101036.47;;;14.77;100.00
62031;BME280;62035;52.094;5.112;2022-10-16T03:11:50;101024.41;;;14.73;100.00
62031;BME280;62035;52.094;5.112;2022-10-16T03:14:18;101020.38;;;14.77;100.00
62031;BME280;62035;52.094;5.112;2022-10-16T03:16:45;101022.69;;;14.80;100.00
62031;BME280;62035;52.094;5.112;2022-10-16T03:19:15;101021.69;;;14.81;100.00
62031;BME280;62035;52.094;5.112;2022-10-16T03:21:44;101023.72;;;14.79;100.00
62031;BME280;62035;52.094;5.112;2022-10-16T03:24:12;101034.81;;;14.51;100.00
62031;BME280;62035;52.094;5.112;2022-10-16T03:26:39;101036.66;;;14.51;100.00
62031;BME280;62035;52.094;5.112;2022-10-16T03:29:07;101031.97;;;14.53;100.00
62031;BME280;62035;52.094;5.112;2022-10-16T03:31:35;101049.22;;;14.42;100.00
62031;BME280;62035;52.094;5.112;2022-10-16T03:34:02;101056.25;;;14.43;100.00
62031;BME280;62035;52.094;5.112;2022-10-16T03:36:31;101062.63;;;14.50;100.00
62031;BME280;62035;52.094;5.112;2022-10-16T03:38:59;101066.63;;;14.46;100.00
62031;BME280;62035;52.094;5.112;2022-10-16T03:41:26;101062.28;;;14.37;100.00
62031;BME280;62035;52.094;5.112;2022-10-16T03:43:54;101068.97;;;14.33;100.00
62031;BME280;62035;52.094;5.112;2022-10-16T03:46:21;101072.50;;;14.50;100.00
62031;BME280;62035;52.094;5.112;2022-10-16T03:48:49;101070.97;;;14.31;100.00
62031;BME280;62035;52.094;5.112;2022-10-16T03:51:16;101066.47;;;14.31;100.00
62031;BME280;62035;52.094;5.112;2022-10-16T03:53:45;101076.00;;;14.50;100.00
62031;BME280;62035;52.094;5.112;2022-10-16T03:56:13;101063.63;;;14.57;100.00
62031;BME280;62035;52.094;5.112;2022-10-16T03:58:41;101079.00;;;14.47;100.00
62031;BME280;62035;52.094;5.112;2022-10-16T04:01:08;101081.69;;;14.63;100.00
62031;BME280;62035;52.094;5.112;2022-10-16T04:03:36;101083.69;;;14.53;100.00
62031;BME280;62035;52.094;5.112;2022-10-16T04:06:03;101088.03;;;14.71;100.00
62031;BME280;62035;52.094;5.112;2022-10-16T04:08:31;101083.88;;;14.60;100.00
62031;BME280;62035;52.094;5.112;2022-10-16T04:11:02;101087.03;;;14.72;100.00
62031;BME280;62035;52.094;5.112;2022-10-16T04:13:30;101089.22;;;14.60;100.00
62031;BME280;62035;52.094;5.112;2022-10-16T04:15:58;101097.09;;;14.45;100.00
62031;BME280;62035;52.094;5.112;2022-10-16T04:18:25;101092.22;;;14.65;100.00
62031;BME280;62035;52.094;5.112;2022-10-16T04:20:54;101095.25;;;14.70;100.00
62031;BME280;62035;52.094;5.112;2022-10-16T04:23:21;101105.63;;;14.73;100.00
62031;BME280;62035;52.094;5.112;2022-10-16T04:25:50;101092.56;;;14.54;100.00
62031;BME280;62035;52.094;5.112;2022-10-16T04:28:19;101113.66;;;14.65;100.00
62031;BME280;62035;52.094;5.112;2022-10-16T04:30:47;101113.16;;;14.70;100.00
62031;BME280;62035;52.094;5.112;2022-10-16T04:33:14;101116.84;;;14.60;100.00
62031;BME280;62035;52.094;5.112;2022-10-16T04:35:42;101124.53;;;14.72;100.00
62031;BME280;62035;52.094;5.112;2022-10-16T04:38:09;101120.88;;;14.56;100.00
62031;BME280;62035;52.094;5.112;2022-10-16T04:40:37;101128.06;;;14.48;100.00
62031;BME280;62035;52.094;5.112;2022-10-16T04:43:05;101122.53;;;14.41;100.00
62031;BME280;62035;52.094;5.112;2022-10-16T04:45:34;101131.22;;;14.27;100.00
62031;BME280;62035;52.094;5.112;2022-10-16T04:48:02;101136.41;;;14.28;100.00
62031;BME280;62035;52.094;5.112;2022-10-16T04:50:30;101122.00;;;14.29;100.00
62031;BME280;62035;52.094;5.112;2022-10-16T04:52:57;101131.72;;;14.30;100.00
62031;BME280;62035;52.094;5.112;2022-10-16T04:55:25;101139.22;;;14.19;100.00
62031;BME280;62035;52.094;5.112;2022-10-16T04:57:53;101149.28;;;14.25;100.00
62031;BME280;62035;52.094;5.112;2022-10-16T05:00:20;101158.00;;;14.35;100.00
62031;BME280;62035;52.094;5.112;2022-10-16T05:02:51;101159.84;;;14.43;100.00
62031;BME280;62035;52.094;5.112;2022-10-16T05:05:18;101171.06;;;14.38;100.00
62031;BME280;62035;52.094;5.112;2022-10-16T05:07:46;101173.53;;;14.40;100.00
62031;BME280;62035;52.094;5.112;2022-10-16T05:10:15;101177.59;;;14.52;100.00
62031;BME280;62035;52.094;5.112;2022-10-16T05:12:43;101173.09;;;14.52;100.00
62031;BME280;62035;52.094;5.112;2022-10-16T05:15:11;101176.41;;;14.38;100.00
62031;BME280;62035;52.094;5.112;2022-10-16T05:17:38;101171.69;;;14.40;100.00
62031;BME280;62035;52.094;5.112;2022-10-16T05:20:08;101177.88;;;14.41;100.00
62031;BME280;62035;52.094;5.112;2022-10-16T05:22:36;101184.97;;;14.50;100.00
62031;BME280;62035;52.094;5.112;2022-10-16T05:25:04;101190.81;;;14.53;100.00
62031;BME280;62035;52.094;5.112;2022-10-16T05:27:32;101188.81;;;14.47;100.00
62031;BME280;62035;52.094;5.112;2022-10-16T05:29:59;101187.31;;;14.61;100.00
62031;BME280;62035;52.094;5.112;2022-10-16T05:32:27;101197.88;;;14.71;100.00
62031;BME280;62035;52.094;5.112;2022-10-16T05:34:55;101198.53;;;14.48;100.00
62031;BME280;62035;52.094;5.112;2022-10-16T05:37:23;101202.91;;;14.65;100.00
62031;BME280;62035;52.094;5.112;2022-10-16T05:39:51;101210.28;;;14.72;100.00
62031;BME280;62035;52.094;5.112;2022-10-16T05:42:18;101212.44;;;14.68;100.00
62031;BME280;62035;52.094;5.112;2022-10-16T05:44:46;101212.94;;;14.72;100.00
62031;BME280;62035;52.094;5.112;2022-10-16T05:47:14;101224.31;;;14.82;100.00
62031;BME280;62035;52.094;5.112;2022-10-16T05:49:41;101230.38;;;14.76;100.00
62031;BME280;62035;52.094;5.112;2022-10-16T05:52:09;101228.03;;;14.73;100.00
62031;BME280;62035;52.094;5.112;2022-10-16T05:54:37;101225.50;;;14.79;100.00
62031;BME280;62035;52.094;5.112;2022-10-16T05:57:05;101231.88;;;14.70;100.00
62031;BME280;62035;52.094;5.112;2022-10-16T05:59:33;101234.34;;;14.80;100.00
62031;BME280;62035;52.094;5.112;2022-10-16T06:02:00;101235.38;;;14.71;100.00
62031;BME280;62035;52.094;5.112;2022-10-16T06:04:28;101240.06;;;14.68;100.00
62031;BME280;62035;52.094;5.112;2022-10-16T06:06:58;101246.94;;;14.71;100.00
62031;BME280;62035;52.094;5.112;2022-10-16T06:09:27;101254.16;;;14.79;100.00
62031;BME280;62035;52.094;5.112;2022-10-16T06:11:55;101252.09;;;14.56;100.00
62031;BME280;62035;52.094;5.112;2022-10-16T06:14:23;101265.19;;;14.76;100.00
62031;BME280;62035;52.094;5.112;2022-10-16T06:16:51;101262.66;;;14.82;100.00
62031;BME280;62035;52.094;5.112;2022-10-16T06:19:19;101252.78;;;14.66;100.00
62031;BME280;62035;52.094;5.112;2022-10-16T06:21:46;101255.63;;;14.57;100.00
62031;BME280;62035;52.094;5.112;2022-10-16T06:24:14;101260.00;;;14.66;100.00
62031;BME280;62035;52.094;5.112;2022-10-16T06:26:41;101275.91;;;14.67;100.00
62031;BME280;62035;52.094;5.112;2022-10-16T06:29:10;101275.50;;;14.46;100.00
62031;BME280;62035;52.094;5.112;2022-10-16T06:31:38;101274.66;;;14.46;100.00
62031;BME280;62035;52.094;5.112;2022-10-16T06:34:05;101283.91;;;14.51;100.00
62031;BME280;62035;52.094;5.112;2022-10-16T06:36:36;101270.16;;;14.46;100.00
62031;BME280;62035;52.094;5.112;2022-10-16T06:39:05;101282.00;;;14.35;100.00
62031;BME280;62035;52.094;5.112;2022-10-16T06:41:33;101271.81;;;14.47;100.00
62031;BME280;62035;52.094;5.112;2022-10-16T06:44:05;101265.34;;;14.66;100.00
62031;BME280;62035;52.094;5.112;2022-10-16T06:46:34;101278.22;;;14.62;100.00
62031;BME280;62035;52.094;5.112;2022-10-16T06:49:02;101296.00;;;14.72;100.00
62031;BME280;62035;52.094;5.112;2022-10-16T06:51:30;101281.56;;;14.56;100.00
62031;BME280;62035;52.094;5.112;2022-10-16T06:54:00;101283.91;;;14.51;100.00
62031;BME280;62035;52.094;5.112;2022-10-16T06:56:28;101291.28;;;14.65;100.00
62031;BME280;62035;52.094;5.112;2022-10-16T06:58:57;101292.00;;;14.76;100.00
62031;BME280;62035;52.094;5.112;2022-10-16T07:01:25;101297.16;;;14.85;100.00
62031;BME280;62035;52.094;5.112;2022-10-16T07:03:55;101292.50;;;14.95;100.00
62031;BME280;62035;52.094;5.112;2022-10-16T07:06:24;101304.06;;;14.96;100.00
62031;BME280;62035;52.094;5.112;2022-10-16T07:08:53;101304.22;;;14.94;100.00
62031;BME280;62035;52.094;5.112;2022-10-16T07:11:22;101309.56;;;14.78;100.00
62031;BME280;62035;52.094;5.112;2022-10-16T07:13:51;101315.47;;;15.06;100.00
62031;BME280;62035;52.094;5.112;2022-10-16T07:16:20;101316.78;;;15.02;100.00
62031;BME280;62035;52.094;5.112;2022-10-16T07:18:49;101314.59;;;15.22;100.00
62031;BME280;62035;52.094;5.112;2022-10-16T07:21:19;101324.34;;;15.07;100.00
62031;BME280;62035;52.094;5.112;2022-10-16T07:23:50;101338.41;;;15.25;100.00
62031;BME280;62035;52.094;5.112;2022-10-16T07:26:18;101333.88;;;15.25;100.00
62031;BME280;62035;52.094;5.112;2022-10-16T07:28:45;101331.53;;;15.30;100.00
62031;BME280;62035;52.094;5.112;2022-10-16T07:31:15;101347.63;;;15.39;100.00
62031;BME280;62035;52.094;5.112;2022-10-16T07:33:44;101349.28;;;15.23;100.00
62031;BME280;62035;52.094;5.112;2022-10-16T07:36:14;101367.06;;;15.08;100.00
62031;BME280;62035;52.094;5.112;2022-10-16T07:38:44;101371.91;;;15.05;100.00
62031;BME280;62035;52.094;5.112;2022-10-16T07:41:13;101378.44;;;15.02;100.00
62031;BME280;62035;52.094;5.112;2022-10-16T07:43:45;101384.91;;;14.83;100.00
62031;BME280;62035;52.094;5.112;2022-10-16T07:46:15;101392.97;;;14.91;100.00
62031;BME280;62035;52.094;5.112;2022-10-16T07:48:43;101412.75;;;14.90;100.00
62031;BME280;62035;52.094;5.112;2022-10-16T07:51:14;101403.34;;;14.78;100.00
62031;BME280;62035;52.094;5.112;2022-10-16T07:53:45;101403.00;;;14.81;100.00
62031;BME280;62035;52.094;5.112;2022-10-16T07:56:14;101411.25;;;14.96;100.00
62031;BME280;62035;52.094;5.112;2022-10-16T07:58:42;101423.16;;;15.01;100.00
62031;BME280;62035;52.094;5.112;2022-10-16T08:01:12;101412.91;;;14.89;100.00
62031;BME280;62035;52.094;5.112;2022-10-16T08:03:42;101433.38;;;14.98;100.00
62031;BME280;62035;52.094;5.112;2022-10-16T08:06:10;101422.63;;;14.90;100.00
62031;BME280;62035;52.094;5.112;2022-10-16T08:08:38;101437.94;;;15.06;100.00
62031;BME280;62035;52.094;5.112;2022-10-16T08:11:07;101429.41;;;15.10;100.00
62031;BME280;62035;52.094;5.112;2022-10-16T08:13:35;101437.78;;;15.15;100.00
62031;BME280;62035;52.094;5.112;2022-10-16T08:16:04;101438.75;;;15.06;100.00
62031;BME280;62035;52.094;5.112;2022-10-16T08:18:34;101435.78;;;15.17;100.00
62031;BME280;62035;52.094;5.112;2022-10-16T08:21:03;101436.16;;;15.47;100.00
62031;BME280;62035;52.094;5.112;2022-10-16T08:23:33;101434.31;;;15.47;100.00
62031;BME280;62035;52.094;5.112;2022-10-16T08:26:03;101437.16;;;15.62;100.00
62031;BME280;62035;52.094;5.112;2022-10-16T08:28:34;101441.84;;;15.44;100.00
62031;BME280;62035;52.094;5.112;2022-10-16T08:31:06;101446.16;;;15.28;100.00
62031;BME280;62035;52.094;5.112;2022-10-16T08:33:35;101441.84;;;15.60;100.00
62031;BME280;62035;52.094;5.112;2022-10-16T08:36:05;101445.22;;;15.62;100.00
62031;BME280;62035;52.094;5.112;2022-10-16T08:38:33;101454.94;;;15.55;100.00
62031;BME280;62035;52.094;5.112;2022-10-16T08:44:30;101460.16;;;15.56;100.00
62031;BME280;62035;52.094;5.112;2022-10-16T08:47:17;101461.31;;;15.62;100.00
62031;BME280;62035;52.094;5.112;2022-10-16T08:49:56;101465.69;;;15.79;100.00
62031;BME280;62035;52.094;5.112;2022-10-16T08:52:30;101470.88;;;15.81;100.00
62031;BME280;62035;52.094;5.112;2022-10-16T08:55:01;101464.69;;;15.96;100.00
62031;BME280;62035;52.094;5.112;2022-10-16T08:57:31;101472.88;;;16.11;100.00
62031;BME280;62035;52.094;5.112;2022-10-16T09:00:08;101475.72;;;16.10;100.00
62031;BME280;62035;52.094;5.112;2022-10-16T09:02:40;101484.66;;;15.94;100.00
62031;BME280;62035;52.094;5.112;2022-10-16T09:05:33;101475.03;;;16.24;100.00
62031;BME280;62035;52.094;5.112;2022-10-16T09:08:23;101486.03;;;16.61;100.00
62031;BME280;62035;52.094;5.112;2022-10-16T09:10:59;101482.09;;;16.33;100.00
62031;BME280;62035;52.094;5.112;2022-10-16T09:13:36;101487.75;;;16.46;100.00
62031;BME280;62035;52.094;5.112;2022-10-16T09:16:18;101493.06;;;16.79;100.00
62031;BME280;62035;52.094;5.112;2022-10-16T09:18:55;101495.53;;;16.88;100.00
62031;BME280;62035;52.094;5.112;2022-10-16T09:21:30;101485.25;;;17.23;100.00
62031;BME280;62035;52.094;5.112;2022-10-16T09:23:59;101487.81;;;17.47;100.00
62031;BME280;62035;52.094;5.112;2022-10-16T09:26:37;101501.13;;;17.41;100.00
62031;BME280;62035;52.094;5.112;2022-10-16T09:29:04;101503.16;;;17.16;100.00
62031;BME280;62035;52.094;5.112;2022-10-16T09:31:36;101498.63;;;17.39;100.00
62031;BME280;62035;52.094;5.112;2022-10-16T09:34:05;101504.59;;;17.80;100.00
62031;BME280;62035;52.094;5.112;2022-10-16T09:36:41;101500.94;;;17.73;100.00
62031;BME280;62035;52.094;5.112;2022-10-16T09:39:12;101499.03;;;17.82;100.00
62031;BME280;62035;52.094;5.112;2022-10-16T09:41:41;101505.50;;;18.10;100.00
62031;BME280;62035;52.094;5.112;2022-10-16T09:44:19;101498.94;;;18.27;100.00
62031;BME280;62035;52.094;5.112;2022-10-16T09:47:02;101495.13;;;17.84;100.00
62031;BME280;62035;52.094;5.112;2022-10-16T09:49:30;101499.50;;;18.23;100.00
62031;BME280;62035;52.094;5.112;2022-10-16T09:52:12;101495.06;;;18.59;100.00
62031;BME280;62035;52.094;5.112;2022-10-16T09:54:49;101503.91;;;18.97;100.00
62031;BME280;62035;52.094;5.112;2022-10-16T09:57:18;101498.88;;;18.94;100.00
62031;BME280;62035;52.094;5.112;2022-10-16T09:59:47;101502.41;;;18.80;100.00
62031;BME280;62035;52.094;5.112;2022-10-16T10:02:19;101503.66;;;18.63;100.00
62031;BME280;62035;52.094;5.112;2022-10-16T10:04:51;101509.06;;;18.78;100.00
62031;BME280;62035;52.094;5.112;2022-10-16T10:07:24;101508.91;;;18.56;100.00
62031;BME280;62035;52.094;5.112;2022-10-16T10:09:54;101518.91;;;18.71;100.00
62031;BME280;62035;52.094;5.112;2022-10-16T10:12:25;101527.94;;;18.40;100.00
62031;BME280;62035;52.094;5.112;2022-10-16T10:14:56;101523.66;;;18.31;100.00
62031;BME280;62035;52.094;5.112;2022-10-16T10:17:28;101530.00;;;18.53;100.00
62031;BME280;62035;52.094;5.112;2022-10-16T10:19:58;101520.75;;;18.85;100.00
62031;BME280;62035;52.094;5.112;2022-10-16T10:22:31;101523.16;;;18.94;100.00
62031;BME280;62035;52.094;5.112;2022-10-16T10:25:15;101522.03;;;19.18;100.00
62031;BME280;62035;52.094;5.112;2022-10-16T10:28:14;101526.81;;;19.38;100.00
62031;BME280;62035;52.094;5.112;2022-10-16T10:30:56;101527.44;;;19.54;100.00
62031;BME280;62035;52.094;5.112;2022-10-16T10:33:39;101523.22;;;19.16;100.00
62031;BME280;62035;52.094;5.112;2022-10-16T10:36:19;101543.81;;;19.02;100.00
62031;BME280;62035;52.094;5.112;2022-10-16T10:38:56;101531.34;;;19.01;100.00
62031;BME280;62035;52.094;5.112;2022-10-16T10:42:02;101541.00;;;19.10;100.00
62031;BME280;62035;52.094;5.112;2022-10-16T10:47:49;101543.81;;;19.02;100.00
62031;BME280;62035;52.094;5.112;2022-10-16T10:50:37;101549.50;;;18.78;100.00
62031;BME280;62035;52.094;5.112;2022-10-16T10:53:21;101546.06;;;18.69;100.00
62031;BME280;62035;52.094;5.112;2022-10-16T10:56:06;101555.63;;;18.72;100.00
62031;BME280;62035;52.094;5.112;2022-10-16T10:59:15;101555.09;;;18.53;100.00
62031;BME280;62035;52.094;5.112;2022-10-16T11:02:15;101563.31;;;18.60;100.00
62031;BME280;62035;52.094;5.112;2022-10-16T11:08:06;101564.44;;;18.65;100.00
62031;BME280;62035;52.094;5.112;2022-10-16T11:10:45;101561.75;;;18.80;100.00
62031;BME280;62035;52.094;5.112;2022-10-16T11:13:29;101563.44;;;18.96;100.00
62031;BME280;62035;52.094;5.112;2022-10-16T11:16:03;101560.00;;;18.73;100.00
62031;BME280;62035;52.094;5.112;2022-10-16T11:18:47;101574.50;;;18.72;100.00
62031;BME280;62035;52.094;5.112;2022-10-16T11:21:21;101572.06;;;18.62;100.00
62031;BME280;62035;52.094;5.112;2022-10-16T11:23:57;101581.56;;;18.73;100.00
62031;BME280;62035;52.094;5.112;2022-10-16T11:26:35;101582.22;;;18.75;100.00
62031;BME280;62035;52.094;5.112;2022-10-16T11:29:13;101586.03;;;18.65;100.00
62031;BME280;62035;52.094;5.112;2022-10-16T11:31:49;101582.28;;;18.81;100.00
62031;BME280;62035;52.094;5.112;2022-10-16T11:34:25;101578.97;;;18.94;100.00
62031;BME280;62035;52.094;5.112;2022-10-16T11:37:04;101589.00;;;18.71;100.00
62031;BME280;62035;52.094;5.112;2022-10-16T11:39:40;101588.66;;;18.74;100.00
62031;BME280;62035;52.094;5.112;2022-10-16T11:42:12;101587.97;;;18.72;100.00
62031;BME280;62035;52.094;5.112;2022-10-16T11:44:53;101592.91;;;18.83;100.00
62031;BME280;62035;52.094;5.112;2022-10-16T11:47:34;101592.81;;;18.61;100.00
62031;BME280;62035;52.094;5.112;2022-10-16T11:50:22;101587.81;;;18.50;100.00
62031;BME280;62035;52.094;5.112;2022-10-16T11:52:56;101590.44;;;18.58;100.00
62031;BME280;62035;52.094;5.112;2022-10-16T11:55:34;101591.63;;;18.56;100.00
62031;BME280;62035;52.094;5.112;2022-10-16T11:58:06;101596.25;;;18.70;100.00
62031;BME280;62035;52.094;5.112;2022-10-16T12:00:45;101589.66;;;18.87;100.00
62031;BME280;62035;52.094;5.112;2022-10-16T12:03:23;101592.09;;;19.12;100.00
62031;BME280;62035;52.094;5.112;2022-10-16T12:06:06;101600.91;;;19.20;100.00
62031;BME280;62035;52.094;5.112;2022-10-16T12:08:47;101609.56;;;19.30;100.00
62031;BME280;62035;52.094;5.112;2022-10-16T12:11:31;101606.78;;;19.53;100.00
62031;BME280;62035;52.094;5.112;2022-10-16T12:14:21;101609.53;;;19.60;100.00
62031;BME280;62035;52.094;5.112;2022-10-16T12:17:04;101606.97;;;19.52;100.00
62031;BME280;62035;52.094;5.112;2022-10-16T12:19:57;101609.75;;;19.58;100.00
62031;BME280;62035;52.094;5.112;2022-10-16T12:22:28;101615.66;;;19.69;100.00
62031;BME280;62035;52.094;5.112;2022-10-16T12:24:58;101612.91;;;19.32;100.00
62031;BME280;62035;52.094;5.112;2022-10-16T12:27:30;101614.19;;;19.37;100.00
62031;BME280;62035;52.094;5.112;2022-10-16T12:30:02;101616.28;;;19.85;100.00
62031;BME280;62035;52.094;5.112;2022-10-16T12:32:33;101611.91;;;19.84;100.00
62031;BME280;62035;52.094;5.112;2022-10-16T12:35:03;101608.91;;;19.58;100.00
62031;BME280;62035;52.094;5.112;2022-10-16T12:37:44;101618.38;;;19.39;100.00
62031;BME280;62035;52.094;5.112;2022-10-16T12:40:15;101618.09;;;19.34;100.00
62031;BME280;62035;52.094;5.112;2022-10-16T12:42:54;101621.28;;;19.08;100.00
62031;BME280;62035;52.094;5.112;2022-10-16T12:45:27;101609.59;;;19.16;100.00
62031;BME280;62035;52.094;5.112;2022-10-16T12:47:57;101608.63;;;19.53;100.00
62031;BME280;62035;52.094;5.112;2022-10-16T12:50:30;101609.03;;;19.71;100.00
62031;BME280;62035;52.094;5.112;2022-10-16T12:53:03;101606.41;;;19.78;100.00
62031;BME280;62035;52.094;5.112;2022-10-16T12:55:51;101627.84;;;20.01;100.00
62031;BME280;62035;52.094;5.112;2022-10-16T12:58:37;101617.03;;;19.79;100.00
62031;BME280;62035;52.094;5.112;2022-10-16T13:01:29;101621.56;;;20.15;100.00
62031;BME280;62035;52.094;5.112;2022-10-16T13:04:17;101622.78;;;20.12;100.00
62031;BME280;62035;52.094;5.112;2022-10-16T13:10:15;101619.13;;;19.98;100.00
62031;BME280;62035;52.094;5.112;2022-10-16T13:13:05;101621.09;;;20.11;100.00
62031;BME280;62035;52.094;5.112;2022-10-16T13:15:55;101625.03;;;20.30;100.00
62031;BME280;62035;52.094;5.112;2022-10-16T13:18:41;101616.59;;;19.97;100.00
62031;BME280;62035;52.094;5.112;2022-10-16T13:21:25;101624.91;;;20.17;100.00